createdAt,value
2023-02-25T00:02:02.679Z,1.10
2023-02-25T00:04:32.456Z,1.20
2023-02-25T00:07:00.890Z,1.40
2023-02-25T00:09:31.180Z,1.52
2023-02-25T00:11:59.627Z,2.00
2023-02-25T00:14:28.400Z,2.05
2023-02-25T00:16:57.619Z,1.33
2023-02-25T00:19:27.006Z,1.50
2023-02-25T00:21:55.253Z,2.03
2023-02-25T00:24:23.727Z,1.90
2023-02-25T00:26:53.470Z,1.58
2023-02-25T00:29:22.337Z,1.60
2023-02-25T00:31:50.936Z,1.63
2023-02-25T00:34:19.411Z,1.45
2023-02-25T00:36:48.314Z,1.40
2023-02-25T00:39:16.693Z,1.55
2023-02-25T00:41:44.963Z,1.75
2023-02-25T00:44:14.697Z,1.48
2023-02-25T00:46:43.105Z,1.60
2023-02-25T00:49:16.675Z,1.45
2023-02-25T00:51:49.513Z,1.40
2023-02-25T00:54:17.811Z,1.17
2023-02-25T00:56:46.102Z,1.10
2023-02-25T00:59:15.784Z,1.70
2023-02-25T01:01:44.281Z,1.40
2023-02-25T01:04:12.782Z,1.90
2023-02-25T01:06:41.319Z,1.50
2023-02-25T01:09:13.891Z,1.63
2023-02-25T01:11:45.465Z,1.55
2023-02-25T01:14:17.125Z,1.38
2023-02-25T01:19:16.241Z,1.02
2023-02-25T01:21:47.489Z,1.20
2023-02-25T01:24:18.002Z,1.08
2023-02-25T01:26:47.566Z,1.13
2023-02-25T01:29:19.602Z,1.27
2023-02-25T01:31:48.824Z,1.13
2023-02-25T01:34:18.858Z,1.33
2023-02-25T01:36:48.117Z,1.20
2023-02-25T01:39:18.368Z,0.80
2023-02-25T01:41:48.848Z,0.93
2023-02-25T01:44:21.030Z,0.88
2023-02-25T01:46:51.126Z,0.65
2023-02-25T01:49:22.937Z,0.52
2023-02-25T01:54:22.214Z,0.60
2023-02-25T01:56:53.986Z,0.80
2023-02-25T01:59:27.733Z,0.60
2023-02-25T02:01:56.424Z,0.73
2023-02-25T02:04:27.369Z,0.88
2023-02-25T02:06:57.135Z,0.90
2023-02-25T02:09:29.732Z,0.90
2023-02-25T02:11:58.810Z,0.65
2023-02-25T02:14:30.997Z,0.75
2023-02-25T02:17:17.538Z,0.90
2023-02-25T02:20:10.043Z,1.20
2023-02-25T02:22:48.046Z,0.82
2023-02-25T02:25:45.558Z,0.90
2023-02-25T02:28:43.561Z,0.70
2023-02-25T02:31:40.090Z,0.73
2023-02-25T02:34:20.012Z,0.80
2023-02-25T02:36:57.649Z,1.13
2023-02-25T02:39:30.271Z,1.13
2023-02-25T02:42:04.646Z,1.20
2023-02-25T02:44:43.158Z,1.10
2023-02-25T02:47:20.354Z,0.80
2023-02-25T02:49:51.314Z,0.73
2023-02-25T02:52:24.277Z,1.05
2023-02-25T02:54:56.969Z,0.93
2023-02-25T02:57:28.519Z,0.90
2023-02-25T03:00:01.676Z,0.90
2023-02-25T03:02:36.367Z,1.00
2023-02-25T03:05:09.841Z,1.30
2023-02-25T03:07:42.642Z,1.00
2023-02-25T03:10:15.692Z,1.00
2023-02-25T03:12:43.930Z,1.27
2023-02-25T03:15:14.575Z,0.73
2023-02-25T03:17:48.418Z,0.90
2023-02-25T03:20:19.938Z,1.20
2023-02-25T03:22:51.179Z,0.93
2023-02-25T03:25:23.018Z,0.80
2023-02-25T03:27:53.736Z,0.70
2023-02-25T03:30:30.763Z,0.90
2023-02-25T03:33:05.303Z,0.83
2023-02-25T03:35:35.472Z,0.90
2023-02-25T03:38:07.934Z,0.93
2023-02-25T03:40:37.935Z,0.80
2023-02-25T03:43:10.915Z,1.20
2023-02-25T03:45:41.177Z,1.37
2023-02-25T03:48:13.888Z,1.30
2023-02-25T03:50:46.018Z,1.43
2023-02-25T03:53:14.387Z,1.30
2023-02-25T03:55:43.111Z,1.40
2023-02-25T03:58:11.559Z,1.00
2023-02-25T04:00:42.132Z,1.53
2023-02-25T04:03:12.635Z,1.60
2023-02-25T04:05:40.927Z,1.40
2023-02-25T04:08:15.875Z,1.38
2023-02-25T04:10:44.461Z,1.40
2023-02-25T04:13:13.758Z,1.53
2023-02-25T04:15:42.376Z,1.43
2023-02-25T04:18:13.336Z,1.33
2023-02-25T04:20:42.079Z,1.25
2023-02-25T04:23:13.166Z,1.43
2023-02-25T04:25:41.464Z,1.00
2023-02-25T04:28:09.984Z,1.20
2023-02-25T04:30:39.021Z,1.40
2023-02-25T04:33:07.355Z,1.30
2023-02-25T04:35:37.103Z,0.95
2023-02-25T04:38:08.039Z,1.30
2023-02-25T04:40:37.860Z,0.87
2023-02-25T04:43:06.097Z,1.17
2023-02-25T04:45:34.525Z,1.52
2023-02-25T04:48:02.833Z,1.10
2023-02-25T04:50:31.093Z,1.35
2023-02-25T04:53:03.861Z,1.27
2023-02-25T04:55:32.170Z,1.55
2023-02-25T04:58:00.446Z,1.33
2023-02-25T05:00:28.806Z,1.33
2023-02-25T05:02:58.643Z,1.10
2023-02-25T05:05:27.082Z,1.50
2023-02-25T05:07:55.499Z,1.20
2023-02-25T05:10:25.247Z,1.27
2023-02-25T05:12:53.590Z,1.37
2023-02-25T05:15:21.926Z,1.40
2023-02-25T05:17:50.324Z,1.63
2023-02-25T05:20:19.049Z,1.33
2023-02-25T05:22:47.378Z,1.57
2023-02-25T05:25:16.104Z,1.77
2023-02-25T05:27:45.811Z,1.90
2023-02-25T05:30:15.160Z,1.97
2023-02-25T05:32:43.506Z,2.00
2023-02-25T05:35:12.373Z,2.03
2023-02-25T05:37:40.750Z,1.75
2023-02-25T05:40:14.143Z,2.20
2023-02-25T05:42:42.530Z,1.70
2023-02-25T05:45:12.745Z,1.88
2023-02-25T05:47:41.030Z,2.00
2023-02-25T05:50:10.433Z,1.63
2023-02-25T05:52:39.026Z,2.00
2023-02-25T05:55:09.502Z,1.33
2023-02-25T05:57:38.133Z,2.00
2023-02-25T06:00:09.956Z,2.00
2023-02-25T06:02:39.670Z,1.80
2023-02-25T06:05:09.428Z,1.88
2023-02-25T06:07:37.814Z,1.75
2023-02-25T06:10:06.903Z,1.93
2023-02-25T06:12:38.349Z,1.93
2023-02-25T06:15:07.608Z,1.85
2023-02-25T06:17:36.130Z,2.05
2023-02-25T06:20:07.821Z,2.22
2023-02-25T06:25:04.339Z,1.52
2023-02-25T06:27:33.044Z,1.90
2023-02-25T06:30:02.736Z,2.13
2023-02-25T06:32:31.228Z,2.92
2023-02-25T06:34:59.874Z,2.78
2023-02-25T06:37:30.009Z,3.17
2023-02-25T06:39:58.441Z,3.25
2023-02-25T06:42:27.046Z,3.03
2023-02-25T06:44:55.582Z,3.45
2023-02-25T06:47:24.165Z,2.30
2023-02-25T06:49:52.547Z,1.83
2023-02-25T06:52:20.901Z,1.92
2023-02-25T06:54:51.399Z,1.92
2023-02-25T06:57:19.898Z,3.28
2023-02-25T06:59:48.326Z,2.00
2023-02-25T07:02:17.114Z,1.90
2023-02-25T07:04:45.539Z,2.60
2023-02-25T07:07:14.049Z,3.08
2023-02-25T07:09:42.547Z,2.65
2023-02-25T07:12:12.268Z,3.20
2023-02-25T07:14:40.866Z,3.38
2023-02-25T07:17:09.201Z,3.25
2023-02-25T07:19:37.510Z,2.88
2023-02-25T07:22:06.494Z,2.72
2023-02-25T07:24:34.886Z,2.50
2023-02-25T07:27:03.229Z,2.50
2023-02-25T07:29:33.125Z,2.25
2023-02-25T07:32:01.773Z,2.50
2023-02-25T07:34:30.269Z,2.22
2023-02-25T07:36:58.790Z,2.35
2023-02-25T07:39:27.194Z,2.30
2023-02-25T07:41:55.561Z,2.45
2023-02-25T07:44:24.141Z,2.42
2023-02-25T07:46:54.164Z,2.40
2023-02-25T07:49:22.585Z,3.20
2023-02-25T07:51:50.958Z,2.88
2023-02-25T07:54:21.324Z,3.47
2023-02-25T07:56:51.495Z,2.90
2023-02-25T07:59:19.957Z,2.97
2023-02-25T08:01:48.347Z,2.65
2023-02-25T08:04:21.103Z,2.83
2023-02-25T08:06:49.892Z,3.17
2023-02-25T08:09:18.459Z,2.85
2023-02-25T08:11:46.889Z,2.70
2023-02-25T08:14:15.287Z,3.28
2023-02-25T08:16:43.620Z,3.72
2023-02-25T08:19:12.103Z,2.47
2023-02-25T08:21:42.916Z,2.97
2023-02-25T08:24:11.280Z,2.67
2023-02-25T08:26:41.142Z,2.97
2023-02-25T08:29:09.512Z,2.90
2023-02-25T08:31:37.980Z,3.35
2023-02-25T08:34:06.827Z,3.22
2023-02-25T08:36:36.295Z,2.60
2023-02-25T08:39:06.369Z,2.85
2023-02-25T08:41:34.683Z,2.92
2023-02-25T08:44:03.029Z,2.47
2023-02-25T08:46:33.620Z,2.60
2023-02-25T08:49:02.452Z,2.45
2023-02-25T08:51:35.147Z,2.67
2023-02-25T08:54:07.493Z,2.88
2023-02-25T08:56:36.375Z,3.22
2023-02-25T08:59:06.221Z,3.70
2023-02-25T09:01:45.122Z,3.75
2023-02-25T09:04:14.895Z,3.55
2023-02-25T09:06:43.778Z,3.88
2023-02-25T09:09:13.901Z,3.78
2023-02-25T09:11:45.092Z,4.38
2023-02-25T09:14:14.149Z,4.47
2023-02-25T09:16:42.704Z,4.75
2023-02-25T09:19:12.701Z,4.55
2023-02-25T09:21:41.569Z,5.22
2023-02-25T09:24:11.719Z,4.93
2023-02-25T09:26:41.664Z,4.90
2023-02-25T09:29:10.105Z,4.60
2023-02-25T09:31:39.901Z,5.00
2023-02-25T09:34:15.474Z,4.85
2023-02-25T09:36:44.046Z,4.53
2023-02-25T09:39:12.609Z,5.30
2023-02-25T09:41:50.316Z,4.60
2023-02-25T09:44:22.966Z,5.45
2023-02-25T09:46:54.676Z,7.72
2023-02-25T09:52:00.927Z,11.60
2023-02-25T09:54:35.162Z,11.93
2023-02-25T09:57:07.610Z,9.90
2023-02-25T09:59:36.033Z,8.38
2023-02-25T10:02:20.780Z,8.95
2023-02-25T10:04:57.734Z,8.15
2023-02-25T10:07:29.605Z,7.15
2023-02-25T10:10:04.785Z,6.05
2023-02-25T10:12:43.144Z,5.63
2023-02-25T10:15:31.535Z,5.53
2023-02-25T10:18:15.127Z,3.90
2023-02-25T10:20:56.403Z,4.20
2023-02-25T10:23:37.920Z,4.20
2023-02-25T10:26:13.433Z,3.42
2023-02-25T10:28:45.440Z,3.95
2023-02-25T10:31:16.671Z,4.25
2023-02-25T10:33:47.914Z,3.78
2023-02-25T10:36:18.466Z,3.55
2023-02-25T10:38:49.977Z,4.35
2023-02-25T10:41:19.671Z,3.45
2023-02-25T10:43:51.641Z,4.13
2023-02-25T10:46:26.997Z,3.35
2023-02-25T10:48:59.732Z,4.30
2023-02-25T10:51:29.849Z,4.35
2023-02-25T10:54:08.557Z,4.53
2023-02-25T10:56:43.758Z,4.28
2023-02-25T10:59:31.225Z,3.63
2023-02-25T11:02:01.603Z,3.90
2023-02-25T11:04:34.900Z,3.70
2023-02-25T11:07:03.422Z,4.40
2023-02-25T11:09:38.788Z,4.68
2023-02-25T11:12:19.993Z,3.97
2023-02-25T11:14:49.682Z,3.70
2023-02-25T11:17:21.972Z,4.45
2023-02-25T11:19:57.100Z,4.05
2023-02-25T11:22:32.889Z,4.20
2023-02-25T11:25:03.802Z,4.03
2023-02-25T11:27:38.885Z,4.28
2023-02-25T11:30:19.232Z,4.60
2023-02-25T11:32:53.919Z,3.45
2023-02-25T11:35:30.079Z,3.20
2023-02-25T11:37:59.205Z,3.58
2023-02-25T11:40:29.749Z,2.78
2023-02-25T11:43:18.054Z,3.35
2023-02-25T11:45:56.261Z,2.70
2023-02-25T11:48:28.894Z,3.03
2023-02-25T11:51:05.179Z,2.60
2023-02-25T11:53:48.699Z,2.53
2023-02-25T11:56:25.921Z,3.10
2023-02-25T11:59:12.923Z,3.05
2023-02-25T12:02:00.283Z,2.80
2023-02-25T12:04:54.542Z,3.10
2023-02-25T12:08:13.362Z,2.72
2023-02-25T12:11:16.150Z,3.08
2023-02-25T12:14:25.236Z,3.03
2023-02-25T12:17:33.701Z,3.03
2023-02-25T12:20:50.366Z,3.03
2023-02-25T12:23:55.994Z,3.17
2023-02-25T12:26:35.290Z,2.95
2023-02-25T12:29:19.050Z,2.92
2023-02-25T12:32:04.898Z,3.00
2023-02-25T12:35:17.816Z,2.20
2023-02-25T12:38:19.850Z,2.58
2023-02-25T12:41:26.138Z,2.53
2023-02-25T12:44:01.150Z,2.90
2023-02-25T12:46:47.129Z,2.42
2023-02-25T12:49:38.264Z,3.15
2023-02-25T12:52:35.834Z,2.58
2023-02-25T12:55:27.280Z,3.17
2023-02-25T12:58:23.779Z,2.85
2023-02-25T13:01:29.401Z,2.50
2023-02-25T13:04:24.473Z,2.35
2023-02-25T13:07:08.172Z,2.58
2023-02-25T13:10:10.528Z,2.72
2023-02-25T13:13:02.221Z,3.00
2023-02-25T13:15:38.058Z,2.97
2023-02-25T13:18:26.776Z,2.75
2023-02-25T13:21:17.412Z,2.58
2023-02-25T13:24:05.851Z,2.80
2023-02-25T13:26:57.461Z,2.47
2023-02-25T13:29:40.412Z,2.22
2023-02-25T13:32:21.811Z,2.75
2023-02-25T13:35:06.914Z,2.15
2023-02-25T13:37:46.173Z,2.47
2023-02-25T13:40:27.269Z,3.05
2023-02-25T13:43:29.313Z,1.73
2023-02-25T13:46:37.426Z,2.50
2023-02-25T13:49:30.714Z,2.22
2023-02-25T13:52:20.596Z,2.60
2023-02-25T13:55:07.503Z,2.28
2023-02-25T13:58:07.022Z,2.75
2023-02-25T14:01:05.777Z,2.17
2023-02-25T14:03:56.041Z,1.98
2023-02-25T14:06:47.404Z,1.85
2023-02-25T14:09:33.151Z,1.90
2023-02-25T14:12:13.266Z,1.90
2023-02-25T14:15:18.287Z,2.15
2023-02-25T14:18:13.413Z,2.08
2023-02-25T14:20:57.394Z,1.83
2023-02-25T14:23:38.671Z,2.28
2023-02-25T14:26:31.389Z,2.13
2023-02-25T14:29:14.880Z,2.10
2023-02-25T14:31:54.500Z,2.47
2023-02-25T14:34:44.655Z,2.70
2023-02-25T14:37:34.758Z,2.55
2023-02-25T14:40:21.947Z,2.55
2023-02-25T14:43:06.359Z,2.65
2023-02-25T14:45:39.066Z,2.75
2023-02-25T14:48:13.241Z,2.17
2023-02-25T14:50:50.835Z,2.15
2023-02-25T14:54:03.581Z,2.08
2023-02-25T14:56:52.979Z,2.33
2023-02-25T14:59:57.139Z,2.50
2023-02-25T15:02:45.339Z,2.25
2023-02-25T15:05:38.913Z,2.28
2023-02-25T15:08:38.604Z,2.60
2023-02-25T15:11:24.641Z,2.25
2023-02-25T15:14:42.732Z,2.58
2023-02-25T15:17:50.461Z,2.22
2023-02-25T15:20:33.556Z,2.60
2023-02-25T15:23:11.870Z,2.53
2023-02-25T15:25:45.215Z,2.90
2023-02-25T15:28:40.932Z,2.60
2023-02-25T15:31:30.102Z,3.30
2023-02-25T15:34:44.184Z,2.78
2023-02-25T15:37:36.695Z,2.78
2023-02-25T15:40:40.436Z,2.58
2023-02-25T15:43:39.362Z,2.85
2023-02-25T15:46:41.497Z,3.67
2023-02-25T15:49:34.342Z,3.75
2023-02-25T15:52:04.719Z,3.78
2023-02-25T15:54:51.352Z,4.18
2023-02-25T15:57:41.878Z,4.20
2023-02-25T16:00:52.708Z,5.50
2023-02-25T16:03:43.193Z,4.43
2023-02-25T16:06:19.048Z,4.47
2023-02-25T16:09:03.153Z,4.28
2023-02-25T16:11:38.114Z,4.00
2023-02-25T16:14:13.736Z,4.13
2023-02-25T16:16:47.562Z,4.70
2023-02-25T16:19:20.017Z,5.00
2023-02-25T16:21:50.643Z,4.85
2023-02-25T16:24:20.539Z,5.90
2023-02-25T16:26:59.007Z,5.40
2023-02-25T16:29:49.736Z,4.53
2023-02-25T16:32:27.929Z,5.80
2023-02-25T16:35:06.086Z,5.60
2023-02-25T16:37:43.578Z,5.68
2023-02-25T16:40:17.418Z,5.13
2023-02-25T16:42:47.416Z,4.93
2023-02-25T16:45:26.596Z,4.88
2023-02-25T16:47:58.721Z,4.75
2023-02-25T16:50:32.792Z,4.30
2023-02-25T16:53:01.985Z,3.08
2023-02-25T16:55:37.209Z,3.33
2023-02-25T16:58:08.461Z,3.00
2023-02-25T17:00:37.718Z,2.85
2023-02-25T17:03:12.730Z,3.03
2023-02-25T17:05:42.537Z,3.22
2023-02-25T17:08:16.754Z,4.40
2023-02-25T17:10:48.600Z,6.22
2023-02-25T17:13:22.916Z,9.27
2023-02-25T17:15:52.681Z,12.10
2023-02-25T17:18:26.327Z,12.50
2023-02-25T17:21:03.870Z,11.65
2023-02-25T17:23:38.739Z,9.27
2023-02-25T17:26:09.790Z,7.13
2023-02-25T17:28:38.353Z,7.32
2023-02-25T17:31:10.069Z,5.93
2023-02-25T17:36:21.661Z,4.90
2023-02-25T17:38:55.231Z,4.70
2023-02-25T17:41:25.223Z,5.10
2023-02-25T17:44:00.284Z,4.10
2023-02-25T17:46:36.500Z,4.95
2023-02-25T17:49:17.954Z,4.65
2023-02-25T17:51:53.366Z,4.90
2023-02-25T17:54:24.941Z,3.47
2023-02-25T17:56:59.802Z,4.18
2023-02-25T17:59:39.081Z,3.33
2023-02-25T18:02:29.576Z,2.88
2023-02-25T18:05:24.042Z,3.20
2023-02-25T18:08:14.920Z,3.00
2023-02-25T18:10:50.137Z,2.85
2023-02-25T18:13:25.727Z,3.40
2023-02-25T18:16:31.664Z,3.53
2023-02-25T18:19:02.047Z,3.30
2023-02-25T18:21:31.377Z,3.00
2023-02-25T18:24:04.693Z,3.80
2023-02-25T18:26:34.023Z,2.97
2023-02-25T18:29:07.016Z,3.20
2023-02-25T18:31:38.027Z,3.60
2023-02-25T18:34:09.717Z,3.17
2023-02-25T18:36:39.223Z,2.60
2023-02-25T18:39:16.452Z,4.35
2023-02-25T18:41:45.699Z,7.57
2023-02-25T18:44:17.563Z,8.27
2023-02-25T18:46:47.091Z,7.00
2023-02-25T18:49:18.784Z,5.80
2023-02-25T18:54:21.223Z,5.40
2023-02-25T18:56:49.869Z,4.30
2023-02-25T18:59:19.218Z,3.97
2023-02-25T19:01:47.802Z,4.27
2023-02-25T19:04:18.281Z,3.83
2023-02-25T19:06:47.407Z,4.30
2023-02-25T19:09:17.148Z,4.32
2023-02-25T19:11:45.447Z,4.78
2023-02-25T19:14:19.833Z,4.00
2023-02-25T19:16:48.172Z,4.28
2023-02-25T19:19:16.521Z,4.22
2023-02-25T19:21:44.886Z,3.20
2023-02-25T19:24:13.594Z,4.33
2023-02-25T19:26:44.227Z,3.90
2023-02-25T19:29:12.517Z,4.17
2023-02-25T19:31:41.120Z,4.77
2023-02-25T19:34:09.848Z,4.67
2023-02-25T19:36:38.139Z,5.00
2023-02-25T19:39:06.790Z,4.50
2023-02-25T19:41:35.235Z,4.90
2023-02-25T19:44:05.450Z,4.90
2023-02-25T19:46:33.823Z,4.60
2023-02-25T19:49:02.251Z,5.18
2023-02-25T19:51:30.688Z,5.10
2023-02-25T19:53:59.160Z,5.13
2023-02-25T19:56:27.630Z,5.20
2023-02-25T19:58:57.932Z,4.87
2023-02-25T20:01:28.279Z,8.40
2023-02-25T20:03:56.609Z,5.70
2023-02-25T20:06:26.307Z,6.50
2023-02-25T20:08:55.972Z,5.83
2023-02-25T20:11:24.878Z,5.60
2023-02-25T20:13:53.450Z,4.93
2023-02-25T20:16:24.283Z,5.37
2023-02-25T20:18:57.569Z,6.20
2023-02-25T20:21:26.361Z,8.17
2023-02-25T20:23:54.967Z,8.53
2023-02-25T20:26:25.025Z,6.27
2023-02-25T20:28:55.148Z,6.47
2023-02-25T20:31:24.456Z,6.03
2023-02-25T20:33:57.115Z,5.97
2023-02-25T20:36:27.580Z,6.17
2023-02-25T20:39:05.146Z,6.67
2023-02-25T20:41:33.703Z,4.90
2023-02-25T20:44:02.242Z,4.93
2023-02-25T20:46:30.993Z,5.27
2023-02-25T20:49:01.223Z,4.93
2023-02-25T20:51:30.303Z,5.37
2023-02-25T20:53:59.139Z,5.20
2023-02-25T20:56:30.500Z,5.43
2023-02-25T20:58:59.285Z,6.07
2023-02-25T21:01:27.683Z,6.73
2023-02-25T21:03:56.198Z,6.60
2023-02-25T21:06:28.005Z,6.63
2023-02-25T21:08:56.944Z,6.27
2023-02-25T21:11:26.128Z,6.77
2023-02-25T21:13:54.616Z,6.77
2023-02-25T21:16:24.715Z,7.87
2023-02-25T21:18:53.535Z,8.23
2023-02-25T21:21:23.350Z,7.97
2023-02-25T21:23:53.059Z,8.17
2023-02-25T21:26:21.478Z,7.53
2023-02-25T21:28:50.143Z,8.30
2023-02-25T21:31:18.668Z,8.93
2023-02-25T21:33:47.377Z,9.37
2023-02-25T21:36:15.872Z,8.90
2023-02-25T21:38:44.157Z,9.07
2023-02-25T21:41:16.172Z,9.30
2023-02-25T21:43:44.770Z,9.00
2023-02-25T21:46:16.298Z,9.50
2023-02-25T21:48:47.547Z,8.90
2023-02-25T21:51:18.234Z,8.90
2023-02-25T21:53:46.512Z,9.60
2023-02-25T21:56:18.754Z,8.83
2023-02-25T21:58:47.609Z,8.43
2023-02-25T22:01:19.026Z,8.30
2023-02-25T22:03:48.110Z,8.02
2023-02-25T22:06:17.137Z,8.10
2023-02-25T22:08:46.718Z,8.40
2023-02-25T22:11:18.751Z,8.20
2023-02-25T22:13:47.749Z,8.07
2023-02-25T22:16:16.755Z,9.30
2023-02-25T22:18:45.974Z,8.90
2023-02-25T22:21:16.484Z,8.70
2023-02-25T22:23:45.770Z,8.40
2023-02-25T22:26:17.611Z,8.43
2023-02-25T22:28:46.547Z,8.77
2023-02-25T22:31:16.783Z,8.20
2023-02-25T22:33:45.713Z,7.33
2023-02-25T22:36:15.464Z,7.50
2023-02-25T22:38:45.066Z,7.50
2023-02-25T22:41:14.959Z,8.57
2023-02-25T22:43:44.889Z,8.20
2023-02-25T22:46:15.423Z,7.80
2023-02-25T22:48:45.452Z,7.23
2023-02-25T22:51:15.210Z,4.00
2023-02-25T22:53:43.562Z,3.95
2023-02-25T22:56:12.620Z,3.40
2023-02-25T22:58:41.289Z,3.97
2023-02-25T23:01:11.822Z,3.37
2023-02-25T23:03:40.295Z,3.00
2023-02-25T23:06:09.091Z,3.00
2023-02-25T23:08:37.596Z,3.23
2023-02-25T23:11:10.991Z,2.30
2023-02-25T23:13:46.254Z,2.50
2023-02-25T23:16:17.722Z,2.10
2023-02-25T23:18:46.703Z,2.45
2023-02-25T23:21:19.192Z,2.73
2023-02-25T23:23:48.895Z,3.13
2023-02-25T23:26:20.343Z,3.30
2023-02-25T23:28:49.271Z,2.95
2023-02-25T23:31:23.307Z,2.80
2023-02-25T23:33:51.762Z,2.20
2023-02-25T23:36:20.024Z,2.30
2023-02-25T23:38:48.325Z,3.07
2023-02-25T23:41:16.575Z,2.90
2023-02-25T23:43:44.901Z,2.37
2023-02-25T23:46:13.307Z,2.30
2023-02-25T23:48:43.113Z,2.53
2023-02-25T23:51:12.286Z,3.13
2023-02-25T23:53:41.584Z,2.87
2023-02-25T23:56:12.090Z,2.93
2023-02-25T23:58:41.160Z,2.50
